createdAt,value
2023-05-17T00:01:56.611Z,0.80
2023-05-17T00:04:23.842Z,0.90
2023-05-17T00:06:51.585Z,0.80
2023-05-17T00:09:19.269Z,1.17
2023-05-17T00:11:46.410Z,0.90
2023-05-17T00:14:14.280Z,1.10
2023-05-17T00:16:41.592Z,1.30
2023-05-17T00:19:11.562Z,1.07
2023-05-17T00:21:57.162Z,1.43
2023-05-17T00:24:39.693Z,1.33
2023-05-17T00:27:20.675Z,0.90
2023-05-17T00:33:31.052Z,1.50
2023-05-17T00:36:13.950Z,1.37
2023-05-17T00:41:42.945Z,1.27
2023-05-17T00:44:25.459Z,1.00
2023-05-17T00:47:01.930Z,1.00
2023-05-17T00:49:40.498Z,1.20
2023-05-17T00:52:23.911Z,1.23
2023-05-17T00:55:09.922Z,1.27
2023-05-17T00:57:48.284Z,1.17
2023-05-17T01:00:25.567Z,1.13
2023-05-17T01:03:04.596Z,1.20
2023-05-17T01:05:36.645Z,1.30
2023-05-17T01:08:33.992Z,1.27
2023-05-17T01:11:30.530Z,1.20
2023-05-17T01:15:21.704Z,1.00
2023-05-17T01:18:46.414Z,1.23
2023-05-17T01:22:39.349Z,1.50
2023-05-17T01:25:48.942Z,1.00
2023-05-17T01:28:27.567Z,1.37
2023-05-17T01:31:10.546Z,1.13
2023-05-17T01:34:02.026Z,0.87
2023-05-17T01:37:02.438Z,1.40
2023-05-17T01:40:01.632Z,1.37
2023-05-17T01:42:40.560Z,1.63
2023-05-17T01:45:30.352Z,1.00
2023-05-17T01:48:16.535Z,1.17
2023-05-17T01:50:52.616Z,1.50
2023-05-17T01:54:05.211Z,1.63
2023-05-17T01:57:06.961Z,1.53
2023-05-17T01:59:47.029Z,1.83
2023-05-17T02:02:15.462Z,2.10
2023-05-17T02:04:54.220Z,1.40
2023-05-17T02:07:34.691Z,1.60
2023-05-17T02:10:21.842Z,2.03
2023-05-17T02:12:57.356Z,3.07
2023-05-17T02:15:40.626Z,2.10
2023-05-17T02:18:50.159Z,2.20
2023-05-17T02:24:13.920Z,1.87
2023-05-17T02:26:53.527Z,1.97
2023-05-17T02:29:35.159Z,1.90
2023-05-17T02:32:09.960Z,1.80
2023-05-17T02:34:40.941Z,4.80
2023-05-17T02:37:09.009Z,2.10
2023-05-17T02:39:48.137Z,2.97
2023-05-17T02:42:21.870Z,1.97
2023-05-17T02:45:06.194Z,1.47
2023-05-17T02:47:38.743Z,1.80
2023-05-17T02:50:25.552Z,1.60
2023-05-17T02:52:53.004Z,2.87
2023-05-17T02:55:20.293Z,2.30
2023-05-17T02:57:47.471Z,2.43
2023-05-17T03:00:16.846Z,2.20
2023-05-17T03:02:44.053Z,1.97
2023-05-17T03:05:11.407Z,2.70
2023-05-17T03:07:43.895Z,2.97
2023-05-17T03:10:11.508Z,2.07
2023-05-17T03:12:43.114Z,1.90
2023-05-17T03:15:11.130Z,2.03
2023-05-17T03:17:38.296Z,2.33
2023-05-17T03:20:07.965Z,2.03
2023-05-17T03:22:36.464Z,2.77
2023-05-17T03:25:05.317Z,2.07
2023-05-17T03:27:33.624Z,2.30
2023-05-17T03:30:01.953Z,2.20
2023-05-17T03:32:30.669Z,3.00
2023-05-17T03:34:58.337Z,2.37
2023-05-17T03:37:26.626Z,3.23
2023-05-17T03:39:53.781Z,2.50
2023-05-17T03:42:21.044Z,3.03
2023-05-17T03:44:48.870Z,5.30
2023-05-17T03:47:16.330Z,2.83
2023-05-17T03:49:44.308Z,2.60
2023-05-17T03:52:11.876Z,3.30
2023-05-17T03:54:39.164Z,2.40
2023-05-17T03:57:06.583Z,2.67
2023-05-17T03:59:33.805Z,2.90
2023-05-17T04:02:01.314Z,2.30
2023-05-17T04:04:30.102Z,2.70
2023-05-17T04:06:58.034Z,3.13
2023-05-17T04:09:27.050Z,2.87
2023-05-17T04:11:54.269Z,2.90
2023-05-17T04:14:22.451Z,2.90
2023-05-17T04:16:49.904Z,3.80
2023-05-17T04:19:17.316Z,2.23
2023-05-17T04:21:45.872Z,3.30
2023-05-17T04:24:13.361Z,2.50
2023-05-17T04:26:40.728Z,2.37
2023-05-17T04:29:08.679Z,4.90
2023-05-17T04:31:35.774Z,3.10
2023-05-17T04:34:02.936Z,2.57
2023-05-17T04:36:30.537Z,3.00
2023-05-17T04:38:58.229Z,3.13
2023-05-17T04:41:29.062Z,2.50
2023-05-17T04:43:56.952Z,2.90
2023-05-17T04:46:31.187Z,3.27
2023-05-17T04:48:58.646Z,2.73
2023-05-17T04:51:27.172Z,2.50
2023-05-17T04:53:55.072Z,3.00
2023-05-17T04:56:22.872Z,3.50
2023-05-17T04:58:52.811Z,4.43
2023-05-17T05:01:21.032Z,3.00
2023-05-17T05:03:48.685Z,3.10
2023-05-17T05:06:16.454Z,3.53
2023-05-17T05:08:44.553Z,2.70
2023-05-17T05:11:13.112Z,3.40
2023-05-17T05:13:41.829Z,3.60
2023-05-17T05:16:11.988Z,4.10
2023-05-17T05:18:39.524Z,3.80
2023-05-17T05:21:07.664Z,3.87
2023-05-17T05:23:35.327Z,4.60
2023-05-17T05:26:03.087Z,4.40
2023-05-17T05:28:31.005Z,5.20
2023-05-17T05:31:00.478Z,3.17
2023-05-17T05:33:33.882Z,3.87
2023-05-17T05:36:01.284Z,3.50
2023-05-17T05:38:28.482Z,3.07
2023-05-17T05:40:55.820Z,4.77
2023-05-17T05:43:23.250Z,3.80
2023-05-17T05:45:50.599Z,3.83
2023-05-17T05:48:18.053Z,4.60
2023-05-17T05:50:46.076Z,4.10
2023-05-17T05:53:18.919Z,4.70
2023-05-17T05:55:54.035Z,5.70
2023-05-17T05:58:21.410Z,4.10
2023-05-17T06:00:49.810Z,4.07
2023-05-17T06:03:17.239Z,4.03
2023-05-17T06:05:44.475Z,4.93
2023-05-17T06:08:11.737Z,3.70
2023-05-17T06:10:38.875Z,4.40
2023-05-17T06:13:06.162Z,4.90
2023-05-17T06:15:33.478Z,3.60
2023-05-17T06:18:00.762Z,5.00
2023-05-17T06:20:28.205Z,4.90
2023-05-17T06:22:55.589Z,4.27
2023-05-17T06:25:22.822Z,4.30
2023-05-17T06:27:50.872Z,5.67
2023-05-17T06:30:18.254Z,4.50
2023-05-17T06:32:45.458Z,4.80
2023-05-17T06:35:12.843Z,3.73
2023-05-17T06:37:40.106Z,4.00
2023-05-17T06:40:15.494Z,4.33
2023-05-17T06:42:43.716Z,5.13
2023-05-17T06:45:12.507Z,4.23
2023-05-17T06:47:42.775Z,5.27
2023-05-17T06:50:10.873Z,3.57
2023-05-17T06:52:38.086Z,4.90
2023-05-17T06:55:06.874Z,4.30
2023-05-17T06:57:34.057Z,3.63
2023-05-17T07:00:01.195Z,5.47
2023-05-17T07:02:33.092Z,4.37
2023-05-17T07:05:01.821Z,4.00
2023-05-17T07:07:29.043Z,4.90
2023-05-17T07:09:58.597Z,4.80
2023-05-17T07:12:25.861Z,3.90
2023-05-17T07:14:53.062Z,3.93
2023-05-17T07:17:20.573Z,5.20
2023-05-17T07:19:51.229Z,6.00
2023-05-17T07:22:19.003Z,4.70
2023-05-17T07:24:46.629Z,4.50
2023-05-17T07:27:14.029Z,3.57
2023-05-17T07:29:42.232Z,4.43
2023-05-17T07:32:12.298Z,4.10
2023-05-17T07:34:39.523Z,4.20
2023-05-17T07:37:08.514Z,3.77
2023-05-17T07:39:35.719Z,4.93
2023-05-17T07:42:05.151Z,3.57
2023-05-17T07:44:32.553Z,5.13
2023-05-17T07:46:59.803Z,4.57
2023-05-17T07:49:28.115Z,5.83
2023-05-17T07:51:55.961Z,5.13
2023-05-17T07:54:24.751Z,3.93
2023-05-17T07:56:53.450Z,4.27
2023-05-17T07:59:21.522Z,4.07
2023-05-17T08:01:48.796Z,5.00
2023-05-17T08:04:16.535Z,4.33
2023-05-17T08:06:46.317Z,4.90
2023-05-17T08:09:13.432Z,4.23
2023-05-17T08:11:45.860Z,4.20
2023-05-17T08:14:14.932Z,3.40
2023-05-17T08:16:51.922Z,4.00
2023-05-17T08:19:20.802Z,3.80
2023-05-17T08:21:49.267Z,3.33
2023-05-17T08:24:17.723Z,3.87
2023-05-17T08:26:44.802Z,3.57
2023-05-17T08:29:11.960Z,3.73
2023-05-17T08:31:39.103Z,3.97
2023-05-17T08:34:06.514Z,3.47
2023-05-17T08:36:33.759Z,4.30
2023-05-17T08:39:01.097Z,3.77
2023-05-17T08:41:29.887Z,4.43
2023-05-17T08:43:59.122Z,3.20
2023-05-17T08:46:26.968Z,4.27
2023-05-17T08:49:00.146Z,3.93
2023-05-17T08:51:31.201Z,3.60
2023-05-17T08:53:58.820Z,3.47
2023-05-17T08:56:28.718Z,2.50
2023-05-17T08:58:58.139Z,3.57
2023-05-17T09:01:27.904Z,4.37
2023-05-17T09:03:56.544Z,4.00
2023-05-17T09:06:25.622Z,3.60
2023-05-17T09:08:58.627Z,3.70
2023-05-17T09:11:33.217Z,4.40
2023-05-17T09:14:06.227Z,3.37
2023-05-17T09:16:36.652Z,4.10
2023-05-17T09:19:06.189Z,4.40
2023-05-17T09:21:34.222Z,3.07
2023-05-17T09:26:43.689Z,3.57
2023-05-17T09:29:16.472Z,2.90
2023-05-17T09:31:44.754Z,3.20
2023-05-17T09:34:12.256Z,3.07
2023-05-17T09:36:43.751Z,3.70
2023-05-17T09:39:13.635Z,3.47
2023-05-17T09:41:47.152Z,4.30
2023-05-17T09:44:15.438Z,3.13
2023-05-17T09:46:48.164Z,3.63
2023-05-17T09:49:17.774Z,3.90
2023-05-17T09:51:48.305Z,3.47
2023-05-17T09:54:15.610Z,3.20
2023-05-17T09:56:43.274Z,3.90
2023-05-17T09:59:18.675Z,3.50
2023-05-17T10:01:46.122Z,3.07
2023-05-17T10:04:14.467Z,3.13
2023-05-17T10:06:49.641Z,4.37
2023-05-17T10:09:22.051Z,3.10
2023-05-17T10:11:51.744Z,3.17
2023-05-17T10:14:33.694Z,2.93
2023-05-17T10:17:03.233Z,2.90
2023-05-17T10:19:31.560Z,2.93
2023-05-17T10:22:11.110Z,3.10
2023-05-17T10:24:49.141Z,3.57
2023-05-17T10:27:17.293Z,4.10
2023-05-17T10:29:47.659Z,3.20
2023-05-17T10:32:17.865Z,4.17
2023-05-17T10:34:49.446Z,2.93
2023-05-17T10:37:23.199Z,2.60
2023-05-17T10:39:52.280Z,3.10
2023-05-17T10:42:21.708Z,2.23
2023-05-17T10:44:49.007Z,3.40
2023-05-17T10:47:16.816Z,2.80
2023-05-17T10:49:48.228Z,2.10
2023-05-17T10:52:21.615Z,2.50
2023-05-17T10:54:53.510Z,2.73
2023-05-17T10:57:49.163Z,2.47
2023-05-17T11:00:21.988Z,2.27
2023-05-17T11:02:50.792Z,2.73
2023-05-17T11:05:28.118Z,2.53
2023-05-17T11:08:17.307Z,2.70
2023-05-17T11:11:19.892Z,2.70
2023-05-17T11:13:52.945Z,3.20
2023-05-17T11:16:28.668Z,3.97
2023-05-17T11:19:09.216Z,2.50
2023-05-17T11:21:36.700Z,2.40
2023-05-17T11:24:05.195Z,3.70
2023-05-17T11:26:38.336Z,3.37
2023-05-17T11:29:10.618Z,1.87
2023-05-17T11:31:44.186Z,2.80
2023-05-17T11:34:12.394Z,2.67
2023-05-17T11:36:56.516Z,2.10
2023-05-17T11:39:25.469Z,2.43
2023-05-17T11:41:57.554Z,2.40
2023-05-17T11:44:34.779Z,2.27
2023-05-17T11:47:09.610Z,2.00
2023-05-17T11:49:40.745Z,2.07
2023-05-17T11:52:08.773Z,2.77
2023-05-17T11:54:38.953Z,1.90
2023-05-17T11:57:07.205Z,1.93
2023-05-17T11:59:39.934Z,2.23
2023-05-17T12:02:07.726Z,2.03
2023-05-17T12:04:39.485Z,2.00
2023-05-17T12:07:11.055Z,2.20
2023-05-17T12:09:40.643Z,1.93
2023-05-17T12:12:08.740Z,2.23
2023-05-17T12:14:36.256Z,1.87
2023-05-17T12:17:07.219Z,2.00
2023-05-17T12:19:34.510Z,2.73
2023-05-17T12:22:12.485Z,2.17
2023-05-17T12:24:43.877Z,2.57
2023-05-17T12:27:11.840Z,3.73
2023-05-17T12:29:39.822Z,2.30
2023-05-17T12:32:09.849Z,2.00
2023-05-17T12:34:37.538Z,1.60
2023-05-17T12:37:10.527Z,2.20
2023-05-17T12:39:38.392Z,2.60
2023-05-17T12:42:07.581Z,1.70
2023-05-17T12:44:41.059Z,1.70
2023-05-17T12:47:10.388Z,2.20
2023-05-17T12:49:52.826Z,3.10
2023-05-17T12:52:20.230Z,2.10
2023-05-17T12:54:47.529Z,2.50
2023-05-17T12:57:16.141Z,2.10
2023-05-17T12:59:49.018Z,2.10
2023-05-17T13:02:17.613Z,1.73
2023-05-17T13:04:45.023Z,3.07
2023-05-17T13:07:12.377Z,2.90
2023-05-17T13:09:57.705Z,2.10
2023-05-17T13:12:25.218Z,1.90
2023-05-17T13:14:53.720Z,2.37
2023-05-17T13:17:35.247Z,2.63
2023-05-17T13:20:02.842Z,2.00
2023-05-17T13:22:30.179Z,2.50
2023-05-17T13:24:57.517Z,2.30
2023-05-17T13:27:24.915Z,1.67
2023-05-17T13:29:53.253Z,2.60
2023-05-17T13:32:21.914Z,6.60
2023-05-17T13:34:49.385Z,9.00
2023-05-17T13:37:16.647Z,14.77
2023-05-17T13:39:44.177Z,8.67
2023-05-17T13:42:12.626Z,35.67
2023-05-17T13:44:40.303Z,23.50
2023-05-17T13:47:08.276Z,27.27
2023-05-17T13:49:36.188Z,3.13
2023-05-17T13:52:03.815Z,6.23
2023-05-17T13:54:31.290Z,20.77
2023-05-17T13:56:58.758Z,6.70
2023-05-17T13:59:26.285Z,4.63
2023-05-17T14:01:53.831Z,2.60
2023-05-17T14:04:21.549Z,5.33
2023-05-17T14:06:51.714Z,5.10
2023-05-17T14:09:20.467Z,7.00
2023-05-17T14:11:47.812Z,12.53
2023-05-17T14:14:14.930Z,6.80
2023-05-17T14:16:42.132Z,17.97
2023-05-17T14:19:09.375Z,10.13
2023-05-17T14:21:36.619Z,32.97
2023-05-17T14:24:03.960Z,25.60
2023-05-17T14:26:31.233Z,10.93
2023-05-17T14:28:58.809Z,72.80
2023-05-17T14:31:29.905Z,79.80
2023-05-17T14:33:57.576Z,277.13
2023-05-17T14:36:25.062Z,232.40
2023-05-17T14:38:52.219Z,301.73
2023-05-17T14:41:19.353Z,298.83
2023-05-17T14:43:46.493Z,257.43
2023-05-17T14:46:14.878Z,337.20
2023-05-17T14:48:42.103Z,238.47
2023-05-17T14:51:09.673Z,310.33
2023-05-17T14:53:37.731Z,266.97
2023-05-17T14:56:07.898Z,270.23
2023-05-17T14:58:35.182Z,251.73
2023-05-17T15:01:04.903Z,323.87
2023-05-17T15:03:34.269Z,263.23
2023-05-17T15:06:05.090Z,185.90
2023-05-17T15:08:34.665Z,212.23
2023-05-17T15:11:02.382Z,123.23
2023-05-17T15:13:29.636Z,142.37
2023-05-17T15:15:56.878Z,170.93
2023-05-17T15:18:24.139Z,179.10
2023-05-17T15:20:51.316Z,181.30
2023-05-17T15:23:18.573Z,192.90
2023-05-17T15:25:45.739Z,212.53
2023-05-17T15:28:14.037Z,186.40
2023-05-17T15:30:42.109Z,188.27
2023-05-17T15:33:09.600Z,166.27
2023-05-17T15:35:41.316Z,153.47
2023-05-17T15:38:08.566Z,173.27
2023-05-17T15:40:35.745Z,134.47
2023-05-17T15:43:02.975Z,110.33
2023-05-17T15:45:30.437Z,122.20
2023-05-17T15:47:58.038Z,35.70
2023-05-17T15:50:25.186Z,85.73
2023-05-17T15:52:52.440Z,3.00
2023-05-17T15:55:19.624Z,2.60
2023-05-17T15:57:46.922Z,1.27
2023-05-17T16:00:14.588Z,4.37
2023-05-17T16:02:41.852Z,2.33
2023-05-17T16:05:09.527Z,1.50
2023-05-17T16:07:36.922Z,2.60
2023-05-17T16:10:04.373Z,3.70
2023-05-17T16:12:31.882Z,2.57
2023-05-17T16:14:59.330Z,3.27
2023-05-17T16:17:27.455Z,1.97
2023-05-17T16:19:54.783Z,2.30
2023-05-17T16:22:22.068Z,4.70
2023-05-17T16:24:53.906Z,7.37
2023-05-17T16:27:21.854Z,2.00
2023-05-17T16:29:49.133Z,2.87
2023-05-17T16:32:16.396Z,1.97
2023-05-17T16:34:43.721Z,1.43
2023-05-17T16:37:11.244Z,1.80
2023-05-17T16:39:38.404Z,2.00
2023-05-17T16:42:05.897Z,1.73
2023-05-17T16:44:33.506Z,2.37
2023-05-17T16:47:01.398Z,1.80
2023-05-17T16:49:30.508Z,2.20
2023-05-17T16:51:57.839Z,2.47
2023-05-17T16:54:28.244Z,2.60
2023-05-17T16:56:56.287Z,1.73
2023-05-17T16:59:23.462Z,3.20
2023-05-17T17:01:51.334Z,1.80
2023-05-17T17:04:18.661Z,1.67
2023-05-17T17:06:45.994Z,2.67
2023-05-17T17:09:13.097Z,2.10
2023-05-17T17:11:40.704Z,59.93
2023-05-17T17:14:07.967Z,37.13
2023-05-17T17:16:35.276Z,25.10
2023-05-17T17:19:03.696Z,21.90
2023-05-17T17:21:36.421Z,29.07
2023-05-17T17:24:05.790Z,42.67
2023-05-17T17:26:37.436Z,15.73
2023-05-17T17:29:05.406Z,14.37
2023-05-17T17:31:32.714Z,15.73
2023-05-17T17:34:00.176Z,17.73
2023-05-17T17:36:27.375Z,17.30
2023-05-17T17:38:54.496Z,15.37
2023-05-17T17:41:21.741Z,14.53
2023-05-17T17:43:49.454Z,15.17
2023-05-17T17:46:16.720Z,16.53
2023-05-17T17:48:43.917Z,19.57
2023-05-17T17:51:11.461Z,35.67
2023-05-17T17:53:41.365Z,21.47
2023-05-17T17:56:08.812Z,19.33
2023-05-17T17:58:36.995Z,18.03
2023-05-17T18:01:04.578Z,17.77
2023-05-17T18:03:31.751Z,20.47
2023-05-17T18:05:59.157Z,18.13
2023-05-17T18:08:28.758Z,10.53
2023-05-17T18:10:56.320Z,8.60
2023-05-17T18:13:23.841Z,8.10
2023-05-17T18:15:51.282Z,10.10
2023-05-17T18:18:18.497Z,10.27
2023-05-17T18:20:45.786Z,8.63
2023-05-17T18:23:13.016Z,7.73
2023-05-17T18:25:40.216Z,14.00
2023-05-17T18:28:09.001Z,18.57
2023-05-17T18:30:36.465Z,31.87
2023-05-17T18:33:03.975Z,31.50
2023-05-17T18:35:31.300Z,28.97
2023-05-17T18:37:59.830Z,25.20
2023-05-17T18:40:28.068Z,17.77
2023-05-17T18:42:55.900Z,13.87
2023-05-17T18:45:23.029Z,6.30
2023-05-17T18:47:50.313Z,2.90
2023-05-17T18:50:17.912Z,2.27
2023-05-17T18:52:44.971Z,2.37
2023-05-17T18:55:12.146Z,2.20
2023-05-17T18:57:39.691Z,2.10
2023-05-17T19:00:08.666Z,2.13
2023-05-17T19:02:36.128Z,1.93
2023-05-17T19:05:03.919Z,2.00
2023-05-17T19:07:31.163Z,2.07
2023-05-17T19:09:58.409Z,2.70
2023-05-17T19:12:25.898Z,2.53
2023-05-17T19:14:53.049Z,2.70
2023-05-17T19:17:20.225Z,3.00
2023-05-17T19:19:47.665Z,2.90
2023-05-17T19:22:14.969Z,2.77
2023-05-17T19:24:42.120Z,2.80
2023-05-17T19:27:10.709Z,1.80
2023-05-17T19:29:38.059Z,2.90
2023-05-17T19:32:06.313Z,3.57
2023-05-17T19:34:33.581Z,3.37
2023-05-17T19:37:00.785Z,3.30
2023-05-17T19:39:28.034Z,3.93
2023-05-17T19:41:55.783Z,3.00
2023-05-17T19:44:23.125Z,3.40
2023-05-17T19:46:50.668Z,2.93
2023-05-17T19:49:17.972Z,3.23
2023-05-17T19:51:46.757Z,3.50
2023-05-17T19:54:14.224Z,3.50
2023-05-17T19:56:41.715Z,2.77
2023-05-17T19:59:12.031Z,4.03
2023-05-17T20:01:39.294Z,3.17
2023-05-17T20:04:06.844Z,3.67
2023-05-17T20:06:34.235Z,4.00
2023-05-17T20:09:01.959Z,3.10
2023-05-17T20:11:29.399Z,2.80
2023-05-17T20:13:57.874Z,4.37
2023-05-17T20:16:28.070Z,2.70
2023-05-17T20:18:58.239Z,2.97
2023-05-17T20:21:26.645Z,2.13
2023-05-17T20:24:01.070Z,2.80
2023-05-17T20:26:32.021Z,2.33
2023-05-17T20:28:59.880Z,3.37
2023-05-17T20:31:28.245Z,3.67
2023-05-17T20:33:55.805Z,4.57
2023-05-17T20:36:25.022Z,2.73
2023-05-17T20:38:53.119Z,2.47
2023-05-17T20:41:20.866Z,3.27
2023-05-17T20:43:49.813Z,3.27
2023-05-17T20:46:17.739Z,3.43
2023-05-17T20:48:47.806Z,3.27
2023-05-17T20:51:16.333Z,4.00
2023-05-17T20:53:44.031Z,3.07
2023-05-17T20:56:11.136Z,2.23
2023-05-17T20:58:38.317Z,3.13
2023-05-17T21:01:08.501Z,2.50
2023-05-17T21:03:36.110Z,2.63
2023-05-17T21:06:05.282Z,3.23
2023-05-17T21:08:34.115Z,3.10
2023-05-17T21:11:01.240Z,2.70
2023-05-17T21:13:28.387Z,1.60
2023-05-17T21:15:56.499Z,2.77
2023-05-17T21:18:23.942Z,2.10
2023-05-17T21:20:52.043Z,2.93
2023-05-17T21:23:20.169Z,2.50
2023-05-17T21:25:49.175Z,3.00
2023-05-17T21:28:16.412Z,2.03
2023-05-17T21:30:43.538Z,3.03
2023-05-17T21:33:10.924Z,2.97
2023-05-17T21:35:38.237Z,2.00
2023-05-17T21:38:05.295Z,2.97
2023-05-17T21:40:32.725Z,2.87
2023-05-17T21:43:00.035Z,1.87
2023-05-17T21:45:27.313Z,3.30
2023-05-17T21:47:55.279Z,2.57
2023-05-17T21:50:22.633Z,3.07
2023-05-17T21:52:49.884Z,3.90
2023-05-17T21:55:17.234Z,2.30
2023-05-17T21:57:44.426Z,3.07
2023-05-17T22:00:15.440Z,3.43
2023-05-17T22:02:46.597Z,3.00
2023-05-17T22:05:14.260Z,2.77
2023-05-17T22:07:41.500Z,2.33
2023-05-17T22:10:09.944Z,2.80
2023-05-17T22:12:38.300Z,4.03
2023-05-17T22:15:06.426Z,2.30
2023-05-17T22:17:47.059Z,2.40
2023-05-17T22:20:19.712Z,1.80
2023-05-17T22:22:47.043Z,2.80
2023-05-17T22:25:15.729Z,2.70
2023-05-17T22:27:43.528Z,1.83
2023-05-17T22:30:11.208Z,2.33
2023-05-17T22:32:38.356Z,2.27
2023-05-17T22:35:05.908Z,1.60
2023-05-17T22:37:34.030Z,3.70
2023-05-17T22:40:01.302Z,2.37
2023-05-17T22:42:28.429Z,2.10
2023-05-17T22:44:55.833Z,1.57
2023-05-17T22:47:24.253Z,1.67
2023-05-17T22:49:52.587Z,2.50
2023-05-17T22:52:20.202Z,2.03
2023-05-17T22:54:47.415Z,2.43
2023-05-17T22:57:14.525Z,2.03
2023-05-17T22:59:43.960Z,1.93
2023-05-17T23:02:14.481Z,2.13
2023-05-17T23:04:41.646Z,3.80
2023-05-17T23:07:10.000Z,3.73
2023-05-17T23:09:40.950Z,3.83
2023-05-17T23:12:13.987Z,2.77
2023-05-17T23:14:41.379Z,2.00
2023-05-17T23:17:08.592Z,4.00
2023-05-17T23:19:35.873Z,3.03
2023-05-17T23:22:03.458Z,2.00
2023-05-17T23:24:30.724Z,2.10
2023-05-17T23:26:57.875Z,2.27
2023-05-17T23:29:26.074Z,2.00
2023-05-17T23:31:53.709Z,1.87
2023-05-17T23:34:21.127Z,2.27
2023-05-17T23:36:48.351Z,3.00
2023-05-17T23:39:15.697Z,1.93
2023-05-17T23:41:43.020Z,2.80
2023-05-17T23:44:11.091Z,2.00
2023-05-17T23:46:38.399Z,2.20
2023-05-17T23:49:05.871Z,3.30
2023-05-17T23:51:34.768Z,2.23
2023-05-17T23:54:02.155Z,3.20
2023-05-17T23:56:29.512Z,3.90
2023-05-17T23:58:56.651Z,2.10
